Time;durP1;ratioP1;P1;durP2;ratioP2;P2;SDS_P1;SDS_P2;PMS_P1;PMS_P2;Temp;Humidity;BMP_temperature;BMP_pressure;BME280_temperature;BME280_humidity;BME280_pressure;Samples;Min_cycle;Max_cycle;Signal;HPM_P1;HPM_P2
2023/06/08 00:00:39;;;;;;;0.50;0.50;;;;;;;21.48;51.94;100478.13;7394833;19;20015;-81
2023/06/08 00:03:06;;;;;;;0.20;0.20;;;;;;;23.59;45.42;100472.25;7394187;19;20006;-81
2023/06/08 00:05:43;;;;;;;0.85;0.85;;;;;;;26.59;37.70;100463.16;7393524;19;20018;-81
2023/06/08 00:08:11;;;;;;;1.23;0.63;;;;;;;27.43;35.60;100447.31;7396220;19;20033;-81
2023/06/08 00:10:37;;;;;;;1.08;0.50;;;;;;;27.58;35.03;100455.06;7395501;19;20576;-81
2023/06/08 00:13:04;;;;;;;0.20;0.20;;;;;;;26.78;35.35;100452.09;7393685;19;20074;-81
2023/06/08 00:15:32;;;;;;;0.85;0.85;;;;;;;16.21;68.15;100473.13;7394743;19;20035;-81
2023/06/08 00:18:00;;;;;;;0.43;0.43;;;;;;;21.18;57.37;100469.00;7396986;19;20019;-81
2023/06/08 00:20:26;;;;;;;0.90;0.32;;;;;;;26.18;39.75;100457.81;7397564;19;20011;-81
2023/06/08 00:22:52;;;;;;;0.20;0.20;;;;;;;26.92;37.78;100455.50;7395166;19;20011;-81
2023/06/08 00:25:18;;;;;;;0.77;0.47;;;;;;;27.28;36.83;100458.03;7393927;19;20465;-81
2023/06/08 00:27:44;;;;;;;1.15;0.82;;;;;;;18.13;53.62;100476.47;7390060;19;20006;-81
2023/06/08 00:30:13;;;;;;;0.30;0.30;;;;;;;24.42;46.66;100461.72;7396133;19;20106;-81
2023/06/08 00:32:40;;;;;;;0.38;0.38;;;;;;;26.33;40.79;100457.81;7396354;19;20014;-81
2023/06/08 00:35:06;;;;;;;0.45;0.45;;;;;;;27.68;37.59;100461.69;7394629;19;20018;-81
2023/06/08 00:37:35;;;;;;;0.22;0.22;;;;;;;28.05;36.96;100460.72;7395291;19;20038;-80
2023/06/08 00:40:04;;;;;;;2.08;0.57;;;;;;;28.27;36.04;100448.31;7397460;19;20111;-81
2023/06/08 00:42:31;;;;;;;1.15;0.45;;;;;;;27.91;36.27;100456.59;7398980;19;20334;-81
2023/06/08 00:44:57;;;;;;;1.83;0.60;;;;;;;27.98;35.30;100450.06;7395784;19;20018;-81
2023/06/08 00:47:24;;;;;;;0.77;0.68;;;;;;;27.79;35.30;100450.53;7393787;19;20021;-81
2023/06/08 00:49:51;;;;;;;0.63;0.63;;;;;;;27.76;34.99;100445.22;7394758;19;20017;-81
2023/06/08 00:52:20;;;;;;;0.52;0.40;;;;;;;27.39;35.08;100449.06;7391226;19;20544;-81
2023/06/08 00:54:50;;;;;;;8.00;1.65;;;;;;;27.43;34.79;100444.47;7398912;19;20024;-81
2023/06/08 00:57:18;;;;;;;1.90;1.03;;;;;;;27.31;34.50;100446.19;7391738;19;20019;-81
2023/06/08 00:59:49;;;;;;;0.70;0.70;;;;;;;27.30;34.75;100450.41;7390967;19;20656;-81
2023/06/08 01:02:16;;;;;;;0.57;0.57;;;;;;;27.26;34.40;100447.19;7390458;19;20038;-82
2023/06/08 01:04:43;;;;;;;2.97;2.10;;;;;;;27.25;34.79;100442.78;7391431;19;20025;-85
2023/06/08 01:07:34;;;;;;;0.22;0.22;;;;;;;27.30;34.82;100446.78;7391620;19;20014;-85
2023/06/08 01:10:20;;;;;;;0.95;0.35;;;;;;;27.26;34.35;100444.31;7391276;19;20007;-84
2023/06/08 01:13:01;;;;;;;1.00;0.85;;;;;;;27.11;34.56;100440.75;7392332;19;20010;-83
2023/06/08 01:15:36;;;;;;;0.88;0.55;;;;;;;27.05;34.31;100436.00;7389185;19;20021;-81
2023/06/08 01:18:07;;;;;;;1.55;1.00;;;;;;;26.92;34.91;100432.63;7395399;19;20522;-84
2023/06/08 01:20:46;;;;;;;0.20;0.20;;;;;;;26.78;35.03;100440.66;7392130;19;20015;-85
2023/06/08 01:23:20;;;;;;;0.70;0.70;;;;;;;26.83;34.83;100439.66;7393489;19;20015;-85
2023/06/08 01:25:48;;;;;;;2.72;0.85;;;;;;;26.77;35.12;100441.97;7393899;19;20032;-84
2023/06/08 01:28:15;;;;;;;0.57;0.50;;;;;;;26.84;35.08;100438.34;7390989;19;20485;-83
2023/06/08 01:30:45;;;;;;;2.10;0.50;;;;;;;26.67;35.02;100445.97;7395582;19;20519;-84
2023/06/08 01:33:14;;;;;;;1.80;0.73;;;;;;;26.68;34.91;100439.69;7396288;19;20043;-83
2023/06/08 01:35:41;;;;;;;4.32;1.65;;;;;;;26.71;34.92;100432.06;7392250;19;20620;-83
2023/06/08 01:38:21;;;;;;;0.95;0.45;;;;;;;26.64;35.02;100442.16;7391258;19;20516;-83
2023/06/08 01:40:54;;;;;;;0.30;0.30;;;;;;;26.77;35.09;100426.91;7391122;19;20078;-82
2023/06/08 01:43:23;;;;;;;0.73;0.50;;;;;;;26.94;34.91;100424.97;7392223;19;20540;-82
2023/06/08 01:45:55;;;;;;;9.05;1.02;;;;;;;26.97;34.79;100418.09;7393615;19;20110;-83
2023/06/08 01:48:23;;;;;;;1.10;0.68;;;;;;;27.10;34.87;100422.06;7390408;19;20018;-83
2023/06/08 01:50:51;;;;;;;0.45;0.45;;;;;;;27.18;35.03;100419.94;7391718;19;20086;-84
2023/06/08 01:53:17;;;;;;;0.75;0.75;;;;;;;27.67;34.54;100425.81;7392122;19;20014;-83
2023/06/08 01:55:48;;;;;;;0.63;0.32;;;;;;;27.65;34.79;100425.66;7391566;19;20041;-82
2023/06/08 01:58:14;;;;;;;0.20;0.15;;;;;;;27.79;34.57;100415.44;7390617;19;20365;-82
2023/06/08 02:00:40;;;;;;;1.40;0.73;;;;;;;27.98;34.67;100418.56;7391681;19;20049;-82
2023/06/08 02:03:06;;;;;;;4.80;1.35;;;;;;;27.95;34.66;100419.72;7394235;19;20096;-81
2023/06/08 02:05:32;;;;;;;1.67;0.50;;;;;;;28.00;34.82;100418.00;7394852;19;20085;-82
2023/06/08 02:08:00;;;;;;;0.55;0.45;;;;;;;28.11;34.80;100420.41;7389879;19;20021;-82
2023/06/08 02:10:26;;;;;;;2.33;0.82;;;;;;;28.10;34.70;100416.00;7391891;19;20613;-82
2023/06/08 02:12:52;;;;;;;0.30;0.30;;;;;;;28.06;34.99;100422.16;7389908;19;20022;-83
2023/06/08 02:15:18;;;;;;;1.45;0.82;;;;;;;28.19;35.09;100418.97;7393923;19;20014;-82
2023/06/08 02:17:44;;;;;;;0.73;0.45;;;;;;;28.22;34.97;100423.53;7391139;19;20014;-82
2023/06/08 02:20:11;;;;;;;3.85;0.85;;;;;;;28.53;34.75;100413.31;7390959;19;20010;-81
2023/06/08 02:22:38;;;;;;;1.42;0.77;;;;;;;28.53;34.58;100410.44;7392673;19;20019;-82
2023/06/08 02:25:06;;;;;;;0.50;0.50;;;;;;;28.53;34.65;100415.41;7395942;19;20039;-82
2023/06/08 02:27:36;;;;;;;0.50;0.47;;;;;;;28.59;34.50;100415.22;7390576;19;20479;-82
2023/06/08 02:30:05;;;;;;;1.42;0.65;;;;;;;28.68;34.87;100417.38;7390349;19;20014;-82
2023/06/08 02:32:34;;;;;;;2.20;1.13;;;;;;;28.71;34.37;100419.09;7390886;19;20019;-82
2023/06/08 02:35:03;;;;;;;0.40;0.40;;;;;;;28.83;34.04;100426.59;7394531;19;20018;-82
2023/06/08 02:37:32;;;;;;;1.67;0.65;;;;;;;29.11;33.21;100428.19;7388709;19;20082;-82
2023/06/08 02:40:00;;;;;;;0.30;0.20;;;;;;;28.87;33.65;100429.06;7388047;19;20025;-82
2023/06/08 02:42:31;;;;;;;2.47;0.98;;;;;;;28.99;33.08;100424.31;7388305;19;20018;-81
2023/06/08 02:44:57;;;;;;;2.58;0.75;;;;;;;28.90;33.56;100428.63;7391973;19;20017;-82
2023/06/08 02:47:25;;;;;;;1.55;0.70;;;;;;;29.15;33.27;100432.16;7387867;19;20025;-82
2023/06/08 02:49:52;;;;;;;2.30;0.70;;;;;;;29.48;32.61;100429.84;7389533;19;20011;-82
2023/06/08 02:52:18;;;;;;;2.28;0.60;;;;;;;29.48;32.80;100424.09;7389180;19;20038;-82
2023/06/08 02:54:44;;;;;;;6.03;0.60;;;;;;;29.45;32.64;100431.03;7392577;19;20011;-82
2023/06/08 02:57:11;;;;;;;3.00;0.65;;;;;;;29.41;32.69;100427.81;7387796;19;20465;-82
2023/06/08 02:59:45;;;;;;;1.33;0.60;;;;;;;29.30;32.89;100424.75;7388987;19;20053;-82
2023/06/08 03:02:12;;;;;;;1.48;0.85;;;;;;;29.32;32.67;100417.06;7389190;19;20018;-82
2023/06/08 03:04:43;;;;;;;4.60;0.85;;;;;;;29.24;32.89;100422.13;7391401;19;20014;-83
2023/06/08 03:07:15;;;;;;;2.63;0.82;;;;;;;27.94;34.13;100418.19;7389011;19;20473;-82
2023/06/08 03:09:45;;;;;;;1.98;0.70;;;;;;;28.88;33.35;100419.09;7388803;19;20035;-82
2023/06/08 03:12:15;;;;;;;2.40;1.17;;;;;;;28.82;32.89;100421.47;7387499;19;20018;-82
2023/06/08 03:14:44;;;;;;;2.60;1.20;;;;;;;28.70;32.83;100415.47;7391751;19;20272;-82
2023/06/08 03:17:11;;;;;;;1.48;0.77;;;;;;;28.65;33.09;100418.59;7393988;19;20668;-82
2023/06/08 03:19:40;;;;;;;1.33;0.80;;;;;;;28.56;33.03;100413.47;7396101;19;20014;-82
2023/06/08 03:22:08;;;;;;;3.47;1.95;;;;;;;28.67;32.74;100415.88;7397097;19;20092;-82
2023/06/08 03:24:48;;;;;;;0.43;0.40;;;;;;;28.65;32.73;100410.75;7398932;19;20022;-82
2023/06/08 03:27:16;;;;;;;4.10;0.80;;;;;;;28.63;32.56;100421.28;7395863;19;20073;-82
2023/06/08 03:29:43;;;;;;;0.80;0.80;;;;;;;26.13;35.06;100415.94;7396068;19;20017;-82
2023/06/08 03:32:10;;;;;;;1.95;1.10;;;;;;;24.94;37.16;100417.84;7398684;19;20031;-82
2023/06/08 03:34:37;;;;;;;0.93;0.93;;;;;;;27.46;34.01;100399.63;7398170;19;20545;-82
2023/06/08 03:37:07;;;;;;;1.98;0.63;;;;;;;27.50;34.25;100412.19;7393387;19;20014;-82
2023/06/08 03:39:36;;;;;;;0.75;0.75;;;;;;;28.00;33.36;100406.53;7392669;19;20016;-82
2023/06/08 03:42:02;;;;;;;1.80;0.75;;;;;;;28.12;33.25;100401.84;7396274;19;20477;-82
2023/06/08 03:44:32;;;;;;;1.13;0.77;;;;;;;28.25;32.70;100395.81;7396997;19;20461;-82
2023/06/08 03:46:59;;;;;;;1.20;0.63;;;;;;;28.01;32.94;100393.72;7394815;19;20047;-82
2023/06/08 03:49:26;;;;;;;0.60;0.40;;;;;;;27.61;33.91;100399.53;7392960;19;20037;-82
2023/06/08 03:51:54;;;;;;;2.30;1.13;;;;;;;28.25;33.17;100399.44;7396310;19;20018;-82
2023/06/08 03:54:22;;;;;;;0.90;0.50;;;;;;;28.58;33.06;100399.34;7397138;19;20358;-82
2023/06/08 03:56:48;;;;;;;3.40;0.55;;;;;;;28.96;32.45;100399.69;7392994;19;20022;-82
2023/06/08 03:59:14;;;;;;;0.52;0.52;;;;;;;28.73;32.83;100399.94;7393249;19;20022;-81
2023/06/08 04:01:45;;;;;;;4.97;0.70;;;;;;;28.78;32.22;100401.06;7395476;19;20465;-81
2023/06/08 04:04:12;;;;;;;1.35;0.82;;;;;;;28.90;32.38;100387.72;7399034;19;20027;-81
2023/06/08 04:06:40;;;;;;;0.43;0.43;;;;;;;28.98;32.11;100376.91;7394996;19;20027;-82
2023/06/08 04:09:07;;;;;;;1.17;0.50;;;;;;;29.11;32.16;100382.28;7391865;19;20014;-82
2023/06/08 04:11:33;;;;;;;0.93;0.73;;;;;;;29.16;32.05;100387.03;7394909;19;20010;-82
2023/06/08 04:14:01;;;;;;;1.88;1.13;;;;;;;29.09;32.37;100382.88;7396155;19;20006;-81
2023/06/08 04:16:27;;;;;;;1.00;0.60;;;;;;;29.34;31.75;100379.91;7392507;19;20019;-81
2023/06/08 04:18:55;;;;;;;1.40;0.35;;;;;;;29.33;32.24;100381.25;7395748;19;20033;-82
2023/06/08 04:21:25;;;;;;;1.75;0.40;;;;;;;29.34;32.00;100379.91;7394760;19;20650;-82
2023/06/08 04:23:54;;;;;;;1.30;1.15;;;;;;;29.40;31.95;100376.75;7395434;19;20516;-82
2023/06/08 04:26:25;;;;;;;0.25;0.25;;;;;;;29.42;31.61;100374.06;7392276;19;20022;-81
2023/06/08 04:28:53;;;;;;;1.38;0.80;;;;;;;29.35;31.77;100378.56;7391957;19;20037;-81
2023/06/08 04:31:22;;;;;;;4.25;1.40;;;;;;;29.28;32.12;100376.56;7393767;19;20472;-81
2023/06/08 04:33:51;;;;;;;0.88;0.47;;;;;;;29.48;31.70;100365.94;7397383;19;20036;-82
2023/06/08 04:36:19;;;;;;;1.38;1.23;;;;;;;29.59;31.93;100365.38;7394501;19;20038;-81
2023/06/08 04:38:46;;;;;;;0.95;0.57;;;;;;;29.56;31.92;100363.72;7393540;19;20379;-82
2023/06/08 04:41:18;;;;;;;0.90;0.90;;;;;;;29.83;31.18;100364.47;7393654;19;20022;-81
2023/06/08 04:43:49;;;;;;;0.70;0.65;;;;;;;29.96;31.13;100355.44;7393623;19;20014;-82
2023/06/08 04:46:16;;;;;;;0.70;0.70;;;;;;;30.58;30.56;100356.66;7395022;19;20026;-82
2023/06/08 04:48:43;;;;;;;1.15;0.70;;;;;;;29.87;31.14;100362.66;7390691;19;20015;-82
2023/06/08 04:51:10;;;;;;;3.22;1.15;;;;;;;29.78;31.22;100363.38;7395635;19;20077;-83
2023/06/08 04:53:37;;;;;;;2.28;1.10;;;;;;;29.75;31.74;100358.84;7393402;19;20038;-83
2023/06/08 04:56:04;;;;;;;3.92;1.40;;;;;;;29.78;31.39;100363.38;7392433;19;20810;-83
2023/06/08 04:58:31;;;;;;;1.20;0.93;;;;;;;29.67;31.50;100361.03;7392234;19;20019;-82
2023/06/08 05:00:58;;;;;;;0.77;0.70;;;;;;;29.93;30.93;100360.25;7392911;19;20023;-82
2023/06/08 05:03:27;;;;;;;2.42;1.40;;;;;;;29.99;30.88;100354.97;7395017;19;20019;-81
2023/06/08 05:05:55;;;;;;;4.32;0.93;;;;;;;30.07;30.85;100352.00;7393263;19;20010;-82
2023/06/08 05:08:21;;;;;;;3.00;0.70;;;;;;;30.22;30.89;100353.84;7392927;19;20018;-82
2023/06/08 05:10:47;;;;;;;1.45;0.85;;;;;;;30.13;30.93;100348.81;7392540;19;20022;-81
2023/06/08 05:13:13;;;;;;;2.38;1.02;;;;;;;30.20;30.93;100362.31;7394143;19;20031;-81
2023/06/08 05:15:39;;;;;;;0.88;0.88;;;;;;;30.28;31.10;100354.31;7391389;19;20481;-81
2023/06/08 05:18:05;;;;;;;1.13;0.90;;;;;;;30.33;30.85;100353.28;7393552;19;20018;-81
2023/06/08 05:20:32;;;;;;;1.80;1.08;;;;;;;30.28;30.87;100360.06;7392560;19;20018;-82
2023/06/08 05:22:58;;;;;;;1.73;0.80;;;;;;;28.46;33.00;100359.69;7391480;19;20014;-81
2023/06/08 05:25:26;;;;;;;0.52;0.52;;;;;;;21.46;40.12;100370.19;7392868;19;20521;-81
2023/06/08 05:27:52;;;;;;;0.35;0.32;;;;;;;22.41;48.37;100370.88;7390515;19;20046;-81
2023/06/08 05:30:18;;;;;;;0.40;0.40;;;;;;;16.67;73.97;100380.88;7393307;19;20054;-81
2023/06/08 05:32:45;;;;;;;4.18;1.33;;;;;;;21.85;48.61;100365.44;7393859;19;20039;-81
2023/06/08 05:35:11;;;;;;;2.65;1.05;;;;;;;16.88;79.10;100387.13;7394556;19;20035;-82
2023/06/08 05:37:37;;;;;;;0.98;0.93;;;;;;;18.56;74.26;100384.63;7389745;19;20442;-82
2023/06/08 05:40:04;;;;;;;4.55;1.63;;;;;;;26.81;42.72;100365.16;7395048;19;20022;-81
2023/06/08 05:42:30;;;;;;;1.10;0.20;;;;;;;28.77;37.88;100362.25;7394866;19;20343;-82
2023/06/08 05:44:56;;;;;;;3.67;1.30;;;;;;;29.18;36.53;100365.00;7393031;19;20473;-82
2023/06/08 05:47:23;;;;;;;2.25;0.90;;;;;;;29.42;35.67;100365.44;7394446;19;20031;-82
2023/06/08 05:49:49;;;;;;;4.60;1.17;;;;;;;29.47;34.64;100361.56;7395771;19;20021;-83
2023/06/08 05:52:15;;;;;;;5.88;1.45;;;;;;;28.75;35.44;100353.47;7394939;19;20011;-83
2023/06/08 05:54:41;;;;;;;1.45;0.93;;;;;;;29.07;34.78;100359.00;7393045;19;20086;-82
2023/06/08 05:57:07;;;;;;;1.70;0.95;;;;;;;29.77;33.80;100359.00;7389367;19;20010;-82
2023/06/08 05:59:33;;;;;;;0.73;0.52;;;;;;;29.96;33.84;100352.56;7389919;19;20406;-83
2023/06/08 06:02:00;;;;;;;4.20;1.15;;;;;;;29.96;33.08;100352.56;7393189;19;20047;-82
2023/06/08 06:04:26;;;;;;;6.85;0.82;;;;;;;29.93;33.26;100360.25;7394711;19;20475;-82
2023/06/08 06:06:52;;;;;;;1.55;0.75;;;;;;;29.83;32.67;100361.59;7390638;19;20010;-83
2023/06/08 06:09:18;;;;;;;2.47;1.05;;;;;;;29.76;32.53;100353.84;7389110;19;20043;-82
2023/06/08 06:11:47;;;;;;;0.98;0.35;;;;;;;29.73;32.79;100358.66;7396528;19;20018;-81
2023/06/08 06:14:13;;;;;;;1.23;0.82;;;;;;;29.92;32.92;100361.63;7394148;19;20043;-82
2023/06/08 06:16:41;;;;;;;3.10;0.68;;;;;;;30.49;32.13;100363.88;7389163;19;20414;-82
2023/06/08 06:19:07;;;;;;;6.00;2.00;;;;;;;29.95;32.42;100363.28;7393406;19;20014;-82
2023/06/08 06:21:33;;;;;;;0.73;0.30;;;;;;;30.47;31.88;100369.50;7391041;19;20025;-83
2023/06/08 06:23:59;;;;;;;2.28;1.13;;;;;;;30.70;31.75;100357.56;7393946;19;20022;-82
2023/06/08 06:26:25;;;;;;;2.63;0.73;;;;;;;28.32;33.38;100363.47;7390663;19;20011;-82
2023/06/08 06:28:52;;;;;;;1.85;1.05;;;;;;;30.41;31.91;100363.28;7388183;19;20103;-82
2023/06/08 06:31:18;;;;;;;0.52;0.47;;;;;;;30.76;31.73;100363.00;7390641;19;20349;-82
2023/06/08 06:33:44;;;;;;;0.40;0.40;;;;;;;30.93;31.05;100360.75;7393382;19;20007;-82
2023/06/08 06:36:11;;;;;;;0.95;0.63;;;;;;;31.24;30.75;100355.09;7389637;19;20028;-82
2023/06/08 06:38:37;;;;;;;4.00;0.70;;;;;;;31.27;30.56;100360.41;7389034;19;20054;-82
2023/06/08 06:41:04;;;;;;;0.35;0.32;;;;;;;31.67;30.15;100358.94;7389667;19;20339;-82
2023/06/08 06:43:30;;;;;;;2.28;0.88;;;;;;;31.94;30.02;100350.81;7389949;19;20011;-82
2023/06/08 06:46:04;;;;;;;0.60;0.60;;;;;;;32.06;29.84;100361.06;7389864;19;20082;-82
2023/06/08 06:48:30;;;;;;;1.75;0.70;;;;;;;32.35;29.49;100360.13;7390303;19;20015;-82
2023/06/08 06:50:56;;;;;;;2.80;0.70;;;;;;;32.09;29.64;100361.97;7388974;19;20006;-82
2023/06/08 06:53:23;;;;;;;0.40;0.40;;;;;;;32.24;29.27;100361.56;7388553;19;20018;-82
2023/06/08 06:55:49;;;;;;;1.70;0.63;;;;;;;32.10;29.36;100360.59;7389263;19;20019;-82
2023/06/08 06:58:15;;;;;;;1.75;0.60;;;;;;;31.22;30.26;100369.34;7389940;19;20015;-82
2023/06/08 07:00:41;;;;;;;0.98;0.50;;;;;;;30.49;30.98;100371.78;7391411;19;20050;-83
2023/06/08 07:03:07;;;;;;;0.52;0.35;;;;;;;32.67;28.81;100354.47;7391515;19;20019;-82
2023/06/08 07:05:34;;;;;;;1.00;0.80;;;;;;;32.88;28.45;100365.97;7393435;19;20026;-82
2023/06/08 07:08:01;;;;;;;2.28;0.40;;;;;;;32.75;29.20;100369.41;7389674;19;20045;-82
2023/06/08 07:10:27;;;;;;;1.95;0.52;;;;;;;33.03;28.79;100364.06;7390016;19;20035;-82
2023/06/08 07:12:54;;;;;;;3.97;0.47;;;;;;;32.95;28.43;100372.13;7389830;19;20023;-82
2023/06/08 07:15:20;;;;;;;0.85;0.70;;;;;;;32.95;28.86;100369.25;7392023;19;20498;-82
2023/06/08 07:17:47;;;;;;;2.85;0.70;;;;;;;33.07;28.42;100370.81;7389910;19;20019;-81
2023/06/08 07:20:13;;;;;;;4.68;0.63;;;;;;;33.54;27.95;100377.53;7388031;19;20586;-81
2023/06/08 07:22:40;;;;;;;1.85;0.80;;;;;;;33.32;28.15;100373.19;7388275;19;20090;-82
2023/06/08 07:25:06;;;;;;;4.47;1.42;;;;;;;31.79;29.38;100385.75;7392831;19;20049;-82
2023/06/08 07:27:32;;;;;;;1.02;0.52;;;;;;;31.41;30.28;100375.84;7387979;19;20090;-82
2023/06/08 07:29:58;;;;;;;1.63;0.82;;;;;;;33.22;28.28;100381.19;7387496;19;20010;-81
2023/06/08 07:32:26;;;;;;;1.42;0.57;;;;;;;33.59;27.95;100374.25;7389922;19;20078;-81
2023/06/08 07:34:52;;;;;;;0.73;0.73;;;;;;;33.58;27.73;100372.00;7390661;19;20014;-82
2023/06/08 07:37:19;;;;;;;1.55;0.40;;;;;;;32.98;28.41;100373.78;7387397;19;20097;-81
2023/06/08 07:39:45;;;;;;;0.60;0.40;;;;;;;32.73;28.49;100377.19;7386250;19;20022;-82
2023/06/08 07:42:11;;;;;;;2.63;0.73;;;;;;;32.56;28.62;100368.81;7386141;19;20487;-82
2023/06/08 07:44:37;;;;;;;0.90;0.52;;;;;;;32.53;28.92;100370.06;7387461;19;20473;-82
2023/06/08 07:47:03;;;;;;;1.42;1.17;;;;;;;32.57;28.60;100376.84;7385268;19;20039;-82
2023/06/08 07:49:30;;;;;;;2.13;0.60;;;;;;;32.34;28.90;100368.03;7386311;19;20018;-81
2023/06/08 07:51:56;;;;;;;0.57;0.57;;;;;;;32.64;28.37;100364.34;7386631;19;20383;-83
2023/06/08 07:54:24;;;;;;;1.60;0.80;;;;;;;33.89;27.63;100366.75;7389371;19;20019;-82
2023/06/08 07:56:50;;;;;;;2.35;0.47;;;;;;;33.05;28.48;100367.81;7388144;19;20015;-83
2023/06/08 07:59:18;;;;;;;1.17;0.70;;;;;;;33.70;27.68;100372.75;7387001;19;20023;-82
2023/06/08 08:01:44;;;;;;;0.32;0.32;;;;;;;33.55;27.88;100376.13;7391171;19;20365;-82
2023/06/08 08:04:11;;;;;;;3.35;1.17;;;;;;;33.84;27.72;100365.00;7398435;19;20302;-82
2023/06/08 08:06:37;;;;;;;6.50;0.77;;;;;;;33.75;27.37;100365.88;7395279;19;20031;-82
2023/06/08 08:09:03;;;;;;;3.35;0.70;;;;;;;34.01;27.30;100361.75;7392962;19;20018;-81
2023/06/08 08:11:29;;;;;;;2.30;0.40;;;;;;;34.24;27.25;100360.97;7396202;19;20023;-81
2023/06/08 08:13:55;;;;;;;1.77;0.32;;;;;;;34.19;27.33;100354.19;7396405;19;20015;-81
2023/06/08 08:16:22;;;;;;;1.85;1.27;;;;;;;34.15;27.52;100361.88;7392963;19;20509;-81
2023/06/08 08:18:49;;;;;;;2.95;0.57;;;;;;;34.22;27.25;100370.28;7397441;19;20010;-82
2023/06/08 08:21:15;;;;;;;5.78;0.98;;;;;;;34.53;26.97;100375.78;7394689;19;20014;-81
2023/06/08 08:23:41;;;;;;;0.63;0.50;;;;;;;34.47;26.55;100371.75;7395497;19;20074;-81
2023/06/08 08:26:08;;;;;;;1.52;0.75;;;;;;;34.79;26.29;100359.97;7396524;19;20038;-81
2023/06/08 08:28:38;;;;;;;0.85;0.60;;;;;;;34.64;26.78;100372.09;7394270;19;20021;-80
2023/06/08 08:31:04;;;;;;;0.70;0.63;;;;;;;34.73;26.64;100358.84;7396034;19;20026;-81
2023/06/08 08:33:30;;;;;;;1.95;0.40;;;;;;;35.02;26.40;100364.94;7399049;19;20010;-81
2023/06/08 08:35:57;;;;;;;1.95;0.95;;;;;;;35.28;25.98;100362.78;7392841;19;20010;-80
2023/06/08 08:38:26;;;;;;;1.77;0.52;;;;;;;35.52;25.85;100356.22;7393994;19;20032;-82
2023/06/08 08:40:53;;;;;;;1.15;0.40;;;;;;;35.57;26.08;100352.16;7395345;19;20014;-81
2023/06/08 08:43:29;;;;;;;4.80;0.73;;;;;;;35.84;26.42;100350.69;7396368;19;20392;-82
2023/06/08 08:45:59;;;;;;;0.50;0.50;;;;;;;36.11;25.93;100350.72;7393290;19;20022;-81
2023/06/08 08:48:27;;;;;;;1.52;0.50;;;;;;;36.25;25.38;100352.25;7394636;19;20006;-81
2023/06/08 08:50:57;;;;;;;1.08;0.52;;;;;;;36.36;25.53;100348.44;7393203;19;20054;-83
2023/06/08 08:53:30;;;;;;;0.43;0.37;;;;;;;36.20;25.51;100347.63;7396972;19;20022;-82
2023/06/08 08:55:57;;;;;;;1.55;0.40;;;;;;;35.86;25.89;100342.09;7394168;19;20018;-82
2023/06/08 08:58:23;;;;;;;0.40;0.40;;;;;;;35.52;25.95;100338.84;7394397;19;20498;-82
2023/06/08 09:00:50;;;;;;;0.50;0.30;;;;;;;35.59;25.71;100349.38;7396671;19;20025;-83
2023/06/08 09:03:16;;;;;;;3.42;0.60;;;;;;;35.65;25.61;100343.91;7395188;19;20107;-84
2023/06/08 09:05:45;;;;;;;3.10;0.57;;;;;;;34.90;26.36;100347.59;7395239;19;20015;-85
2023/06/08 09:08:12;;;;;;;6.88;1.80;;;;;;;36.10;26.20;100334.72;7397207;19;20048;-84
2023/06/08 09:10:38;;;;;;;1.20;0.20;;;;;;;36.50;25.60;100348.44;7392721;19;20018;-83
2023/06/08 09:13:04;;;;;;;2.45;0.40;;;;;;;36.59;25.50;100335.84;7391134;19;20441;-84
2023/06/08 09:15:33;;;;;;;3.63;0.30;;;;;;;36.77;25.25;100336.78;7394158;19;20026;-84
2023/06/08 09:18:14;;;;;;;0.85;0.32;;;;;;;36.73;25.41;100338.72;7395658;19;20489;-81
2023/06/08 09:20:40;;;;;;;;;;;;;;;36.84;25.03;100337.84;7394957;19;20465;-82
2023/06/08 09:23:24;;;;;;;1.65;0.35;;;;;;;36.63;25.22;100336.06;7393778;19;19914;-82
2023/06/08 09:25:52;;;;;;;1.42;0.28;;;;;;;36.44;25.58;100339.44;7393930;19;20039;-82
2023/06/08 09:28:28;;;;;;;1.27;0.40;;;;;;;36.01;25.55;100341.50;7390287;19;20015;-82
2023/06/08 09:30:57;;;;;;;7.57;0.35;;;;;;;35.58;25.14;100339.19;7393786;19;20014;-83
2023/06/08 09:33:24;;;;;;;1.60;0.57;;;;;;;35.32;25.49;100340.59;7395547;19;20094;-82
2023/06/08 09:36:04;;;;;;;3.30;1.08;;;;;;;35.43;25.36;100342.63;7391930;19;20011;-82
2023/06/08 09:38:32;;;;;;;4.70;0.73;;;;;;;35.92;25.45;100334.47;7389273;19;20018;-83
2023/06/08 09:41:19;;;;;;;0.35;0.25;;;;;;;36.55;25.33;100324.06;7389206;19;20014;-82
2023/06/08 09:43:48;;;;;;;1.35;0.32;;;;;;;36.97;25.55;100326.19;7390105;19;20492;-83
2023/06/08 09:46:33;;;;;;;0.30;0.10;;;;;;;37.13;24.84;100326.97;7390465;19;21703;-83
2023/06/08 09:49:00;;;;;;;0.57;0.20;;;;;;;37.02;25.02;100327.13;7387873;19;20353;-83
2023/06/08 09:51:26;;;;;;;5.78;0.32;;;;;;;36.79;25.38;100330.31;7389114;19;20442;-83
2023/06/08 09:53:57;;;;;;;0.52;0.30;;;;;;;36.36;25.34;100312.88;7388473;19;20375;-84
2023/06/08 09:56:26;;;;;;;0.22;0.22;;;;;;;35.94;25.63;100313.53;7389720;19;20014;-84
2023/06/08 09:58:53;;;;;;;0.98;0.55;;;;;;;36.21;25.51;100322.25;7387632;19;20023;-84
2023/06/08 10:01:35;;;;;;;0.50;0.50;;;;;;;36.39;25.58;100317.38;7390473;19;20108;-84
2023/06/08 10:04:22;;;;;;;0.20;0.10;;;;;;;36.28;25.65;100318.25;7393852;19;20022;-83
2023/06/08 10:06:54;;;;;;;1.40;0.20;;;;;;;36.33;25.41;100314.94;7391108;19;20031;-83
2023/06/08 10:09:27;;;;;;;3.30;0.20;;;;;;;36.38;25.46;100298.47;7388380;19;20020;-84
2023/06/08 10:11:58;;;;;;;0.65;0.45;;;;;;;36.31;25.60;100305.38;7390179;19;20048;-83
2023/06/08 10:14:26;;;;;;;;;;;;;;;36.72;25.59;100308.94;7392276;19;20010;-85
2023/06/08 10:16:54;;;;;;;2.30;0.57;;;;;;;36.64;25.78;100293.28;7388195;19;20235;-84
2023/06/08 10:19:21;;;;;;;3.17;1.15;;;;;;;37.08;25.20;100293.31;7387049;19;20386;-84
2023/06/08 10:21:48;;;;;;;1.25;0.80;;;;;;;36.99;25.05;100302.31;7389235;19;20018;-84
2023/06/08 10:24:17;;;;;;;3.08;0.68;;;;;;;37.40;24.88;100293.38;7386407;19;20010;-85
2023/06/08 10:26:44;;;;;;;0.63;0.10;;;;;;;37.75;24.80;100293.56;7391681;19;20375;-84
2023/06/08 10:29:11;;;;;;;0.90;0.68;;;;;;;37.85;24.42;100294.03;7388276;19;20029;-84
2023/06/08 10:31:42;;;;;;;0.88;0.17;;;;;;;37.89;24.22;100288.41;7390629;19;20050;-84
2023/06/08 10:34:11;;;;;;;1.38;0.80;;;;;;;38.11;24.25;100282.81;7394240;19;20021;-84
2023/06/08 10:36:40;;;;;;;0.98;0.30;;;;;;;38.15;23.79;100277.91;7244179;19;2864907;-83
2023/06/08 10:39:16;;;;;;;1.85;0.28;;;;;;;38.22;23.86;100276.03;7390802;19;20023;-84
2023/06/08 10:41:45;;;;;;;1.10;0.65;;;;;;;38.34;23.71;100277.31;7393947;19;20031;-84
2023/06/08 10:44:26;;;;;;;1.42;0.40;;;;;;;38.42;23.57;100276.91;7395101;19;20026;-83
2023/06/08 10:47:01;;;;;;;0.95;0.20;;;;;;;38.47;23.96;100270.59;7393492;19;20039;-83
2023/06/08 10:49:38;;;;;;;0.38;0.32;;;;;;;38.34;23.92;100268.56;7388414;19;20035;-83
2023/06/08 10:52:11;;;;;;;1.90;0.52;;;;;;;38.36;24.08;100262.84;7391427;19;20014;-84
2023/06/08 10:54:46;;;;;;;0.77;0.45;;;;;;;38.31;24.57;100260.44;7391623;19;20022;-82
2023/06/08 10:57:40;;;;;;;1.02;0.50;;;;;;;38.25;23.98;100260.19;7389984;19;20010;-85
2023/06/08 11:00:31;;;;;;;1.05;0.47;;;;;;;38.14;24.29;100258.94;7388382;19;20017;-84
2023/06/08 11:03:00;;;;;;;2.28;0.35;;;;;;;38.09;24.28;100257.28;7392278;19;20025;-84
2023/06/08 11:05:35;;;;;;;1.88;0.63;;;;;;;38.21;24.16;100251.22;7390220;19;20014;-84
2023/06/08 11:08:02;;;;;;;1.42;0.38;;;;;;;36.77;25.33;100252.59;7392300;19;20014;-84
2023/06/08 11:10:32;;;;;;;1.95;0.52;;;;;;;37.13;25.43;100241.97;7390127;19;20183;-84
2023/06/08 11:13:12;;;;;;;4.03;0.47;;;;;;;36.90;25.31;100242.31;7390368;19;20029;-84
2023/06/08 11:15:43;;;;;;;1.10;0.20;;;;;;;37.40;24.83;100241.06;7388337;19;20018;-83
2023/06/08 11:18:10;;;;;;;0.98;0.30;;;;;;;37.12;24.85;100238.31;7393830;19;20034;-84
2023/06/08 11:20:41;;;;;;;1.85;0.32;;;;;;;37.15;25.48;100228.28;7388898;19;20500;-85
2023/06/08 11:23:08;;;;;;;;;;;;;;;37.16;25.82;100224.00;7390102;19;20018;-84
2023/06/08 11:25:35;;;;;;;0.65;0.10;;;;;;;37.83;24.72;100224.91;7392190;19;19924;-82
2023/06/08 11:28:02;;;;;;;9.18;0.80;;;;;;;37.94;24.52;100221.03;7392982;19;20027;-84
2023/06/08 11:30:31;;;;;;;1.17;0.38;;;;;;;38.04;24.61;100220.69;7394291;19;20022;-85
2023/06/08 11:32:58;;;;;;;1.30;0.80;;;;;;;38.10;24.68;100226.03;7391587;19;20491;-84